Ashton, Maryland
Current Conditions -  °F | °C
As of 9:55 PM on Thursday 27 Nov 2014 (Local Time) from KGAI Reporting Station
Overcast Overcast  
Wind Chill: 29°   Ceiling: 3200
Heat Index: 34°   Visibility: 10mi
Dew Point: 30°   Wind: 6mph
Humidity: 87%   Direction: 310°NW
Pressure: 30.19"   Gusts: NA
Location:  39.15°N, 77.01°W
Report Text: KGAI 280255Z 31005KT 10SM FEW015 BKN032 OVC040 01/M01 A3019 RMK AO1 52014
Loading
Personal Weather Stations






























Interactive Weather Map New forecast layout! Learn more

10-Day Weather Forecast

Advertisements
Track Severe Weather on mobile